sensor_id;sensor_type;location;lat;lon;timestamp;temperature;humidity
736;DHT22;352;48.626;9.238;2022-10-16T00:00:07;17.10;99.90
736;DHT22;352;48.626;9.238;2022-10-16T00:02:34;17.10;99.90
736;DHT22;352;48.626;9.238;2022-10-16T00:05:00;17.10;99.90
736;DHT22;352;48.626;9.238;2022-10-16T00:07:27;17.00;99.90
736;DHT22;352;48.626;9.238;2022-10-16T00:09:54;16.90;99.90
736;DHT22;352;48.626;9.238;2022-10-16T00:12:20;16.90;99.90
736;DHT22;352;48.626;9.238;2022-10-16T00:14:47;16.80;99.90
736;DHT22;352;48.626;9.238;2022-10-16T00:17:15;16.80;99.90
736;DHT22;352;48.626;9.238;2022-10-16T00:19:42;16.70;99.90
736;DHT22;352;48.626;9.238;2022-10-16T00:22:09;16.70;99.90
736;DHT22;352;48.626;9.238;2022-10-16T00:24:36;16.70;99.90
736;DHT22;352;48.626;9.238;2022-10-16T00:27:03;16.60;99.90
736;DHT22;352;48.626;9.238;2022-10-16T00:29:29;16.50;99.90
736;DHT22;352;48.626;9.238;2022-10-16T00:31:56;16.50;99.90
736;DHT22;352;48.626;9.238;2022-10-16T00:34:24;16.40;99.90
736;DHT22;352;48.626;9.238;2022-10-16T00:36:51;16.40;99.90
736;DHT22;352;48.626;9.238;2022-10-16T00:39:18;16.40;99.90
736;DHT22;352;48.626;9.238;2022-10-16T00:41:44;16.40;99.90
736;DHT22;352;48.626;9.238;2022-10-16T00:44:44;16.30;99.90
736;DHT22;352;48.626;9.238;2022-10-16T00:47:13;16.30;99.90
736;DHT22;352;48.626;9.238;2022-10-16T00:49:41;16.30;99.90
736;DHT22;352;48.626;9.238;2022-10-16T00:52:08;16.20;99.90
736;DHT22;352;48.626;9.238;2022-10-16T00:54:36;16.20;99.90
736;DHT22;352;48.626;9.238;2022-10-16T00:57:05;16.20;99.90
736;DHT22;352;48.626;9.238;2022-10-16T00:59:34;16.20;99.90
736;DHT22;352;48.626;9.238;2022-10-16T01:02:02;16.20;99.90
736;DHT22;352;48.626;9.238;2022-10-16T01:04:33;16.20;99.90
736;DHT22;352;48.626;9.238;2022-10-16T01:07:08;16.20;99.90
736;DHT22;352;48.626;9.238;2022-10-16T01:09:44;16.20;99.90
736;DHT22;352;48.626;9.238;2022-10-16T01:12:15;16.10;99.90
736;DHT22;352;48.626;9.238;2022-10-16T01:14:47;16.10;99.90
736;DHT22;352;48.626;9.238;2022-10-16T01:17:17;16.10;99.90
736;DHT22;352;48.626;9.238;2022-10-16T01:20:00;16.10;99.90
736;DHT22;352;48.626;9.238;2022-10-16T01:22:43;16.10;99.90
736;DHT22;352;48.626;9.238;2022-10-16T01:25:17;16.10;99.90
736;DHT22;352;48.626;9.238;2022-10-16T01:27:47;16.00;99.90
736;DHT22;352;48.626;9.238;2022-10-16T01:30:18;16.00;99.90
736;DHT22;352;48.626;9.238;2022-10-16T01:32:50;16.00;99.90
736;DHT22;352;48.626;9.238;2022-10-16T01:35:23;16.00;99.90
736;DHT22;352;48.626;9.238;2022-10-16T01:37:54;16.00;99.90
736;DHT22;352;48.626;9.238;2022-10-16T01:40:25;16.00;99.90
736;DHT22;352;48.626;9.238;2022-10-16T01:42:56;16.00;99.90
736;DHT22;352;48.626;9.238;2022-10-16T01:45:27;15.90;99.90
736;DHT22;352;48.626;9.238;2022-10-16T01:47:55;15.90;99.90
736;DHT22;352;48.626;9.238;2022-10-16T01:50:24;15.90;99.90
736;DHT22;352;48.626;9.238;2022-10-16T01:52:52;15.90;99.90
736;DHT22;352;48.626;9.238;2022-10-16T01:55:24;15.90;99.90
736;DHT22;352;48.626;9.238;2022-10-16T01:57:55;15.90;99.90
736;DHT22;352;48.626;9.238;2022-10-16T02:00:22;16.00;99.90
736;DHT22;352;48.626;9.238;2022-10-16T02:02:52;16.00;99.90
736;DHT22;352;48.626;9.238;2022-10-16T02:05:24;16.00;99.90
736;DHT22;352;48.626;9.238;2022-10-16T02:07:52;16.00;99.90
736;DHT22;352;48.626;9.238;2022-10-16T02:10:20;16.00;99.90
736;DHT22;352;48.626;9.238;2022-10-16T02:12:50;16.00;99.90
736;DHT22;352;48.626;9.238;2022-10-16T02:15:21;16.00;99.90
736;DHT22;352;48.626;9.238;2022-10-16T02:17:48;16.00;99.90
736;DHT22;352;48.626;9.238;2022-10-16T02:20:15;16.00;99.90
736;DHT22;352;48.626;9.238;2022-10-16T02:22:44;16.00;99.90
736;DHT22;352;48.626;9.238;2022-10-16T02:25:17;16.00;99.90
736;DHT22;352;48.626;9.238;2022-10-16T02:27:48;16.00;99.90
736;DHT22;352;48.626;9.238;2022-10-16T02:30:23;16.00;99.90
736;DHT22;352;48.626;9.238;2022-10-16T02:32:52;16.00;99.90
736;DHT22;352;48.626;9.238;2022-10-16T02:35:21;16.00;99.90
736;DHT22;352;48.626;9.238;2022-10-16T02:37:50;16.00;99.90
736;DHT22;352;48.626;9.238;2022-10-16T02:40:17;16.10;99.90
736;DHT22;352;48.626;9.238;2022-10-16T02:42:44;16.10;99.90
736;DHT22;352;48.626;9.238;2022-10-16T02:45:11;16.10;99.90
736;DHT22;352;48.626;9.238;2022-10-16T02:47:39;16.10;99.90
736;DHT22;352;48.626;9.238;2022-10-16T02:50:07;16.00;99.90
736;DHT22;352;48.626;9.238;2022-10-16T02:52:33;16.00;99.90
736;DHT22;352;48.626;9.238;2022-10-16T02:55:00;16.00;99.90
736;DHT22;352;48.626;9.238;2022-10-16T02:57:27;15.90;99.90
736;DHT22;352;48.626;9.238;2022-10-16T02:59:54;15.90;99.90
736;DHT22;352;48.626;9.238;2022-10-16T03:02:21;15.90;99.90
736;DHT22;352;48.626;9.238;2022-10-16T03:04:49;16.00;99.90
736;DHT22;352;48.626;9.238;2022-10-16T03:07:16;16.00;99.90
736;DHT22;352;48.626;9.238;2022-10-16T03:09:42;15.90;99.90
736;DHT22;352;48.626;9.238;2022-10-16T03:12:09;15.90;99.90
736;DHT22;352;48.626;9.238;2022-10-16T03:14:37;15.90;99.90
736;DHT22;352;48.626;9.238;2022-10-16T03:17:05;15.90;99.90
736;DHT22;352;48.626;9.238;2022-10-16T03:19:34;15.90;99.90
736;DHT22;352;48.626;9.238;2022-10-16T03:22:02;15.90;99.90
736;DHT22;352;48.626;9.238;2022-10-16T03:24:29;15.90;99.90
736;DHT22;352;48.626;9.238;2022-10-16T03:26:56;15.90;99.90
736;DHT22;352;48.626;9.238;2022-10-16T03:29:22;15.90;99.90
736;DHT22;352;48.626;9.238;2022-10-16T03:31:51;15.90;99.90
736;DHT22;352;48.626;9.238;2022-10-16T03:34:18;15.90;99.90
736;DHT22;352;48.626;9.238;2022-10-16T03:36:44;15.90;99.90
736;DHT22;352;48.626;9.238;2022-10-16T03:39:12;15.90;99.90
736;DHT22;352;48.626;9.238;2022-10-16T03:41:39;15.90;99.90
736;DHT22;352;48.626;9.238;2022-10-16T03:44:06;15.90;99.90
736;DHT22;352;48.626;9.238;2022-10-16T03:46:33;15.90;99.90
736;DHT22;352;48.626;9.238;2022-10-16T03:48:59;16.00;99.90
736;DHT22;352;48.626;9.238;2022-10-16T03:51:26;16.00;99.90
736;DHT22;352;48.626;9.238;2022-10-16T03:53:53;16.00;99.90
736;DHT22;352;48.626;9.238;2022-10-16T03:56:21;16.00;99.90
736;DHT22;352;48.626;9.238;2022-10-16T03:58:48;16.00;99.90
736;DHT22;352;48.626;9.238;2022-10-16T04:01:15;16.00;99.90
736;DHT22;352;48.626;9.238;2022-10-16T04:03:41;16.00;99.90
736;DHT22;352;48.626;9.238;2022-10-16T04:06:08;16.00;99.90
736;DHT22;352;48.626;9.238;2022-10-16T04:08:35;16.00;99.90
736;DHT22;352;48.626;9.238;2022-10-16T04:11:02;15.90;99.90
736;DHT22;352;48.626;9.238;2022-10-16T04:13:30;15.90;99.90
736;DHT22;352;48.626;9.238;2022-10-16T04:15:57;15.90;99.90
736;DHT22;352;48.626;9.238;2022-10-16T04:18:24;15.90;99.90
736;DHT22;352;48.626;9.238;2022-10-16T04:20:52;15.80;99.90
736;DHT22;352;48.626;9.238;2022-10-16T04:23:19;15.80;99.90
736;DHT22;352;48.626;9.238;2022-10-16T04:25:46;15.80;99.90
736;DHT22;352;48.626;9.238;2022-10-16T04:28:12;15.80;99.90
736;DHT22;352;48.626;9.238;2022-10-16T04:30:40;15.80;99.90
736;DHT22;352;48.626;9.238;2022-10-16T04:33:08;15.80;99.90
736;DHT22;352;48.626;9.238;2022-10-16T04:35:35;15.80;99.90
736;DHT22;352;48.626;9.238;2022-10-16T04:38:02;15.80;99.90
736;DHT22;352;48.626;9.238;2022-10-16T04:40:29;15.80;99.90
736;DHT22;352;48.626;9.238;2022-10-16T04:42:58;15.80;99.90
736;DHT22;352;48.626;9.238;2022-10-16T04:45:25;15.80;99.90
736;DHT22;352;48.626;9.238;2022-10-16T04:47:56;15.80;99.90
736;DHT22;352;48.626;9.238;2022-10-16T04:50:26;15.80;99.90
736;DHT22;352;48.626;9.238;2022-10-16T04:52:53;15.80;99.90
736;DHT22;352;48.626;9.238;2022-10-16T04:55:20;15.80;99.90
736;DHT22;352;48.626;9.238;2022-10-16T04:57:46;15.80;99.90
736;DHT22;352;48.626;9.238;2022-10-16T05:00:13;15.70;99.90
736;DHT22;352;48.626;9.238;2022-10-16T05:02:40;15.70;99.90
736;DHT22;352;48.626;9.238;2022-10-16T05:05:08;15.70;99.90
736;DHT22;352;48.626;9.238;2022-10-16T05:07:35;15.60;99.90
736;DHT22;352;48.626;9.238;2022-10-16T05:10:02;15.60;99.90
736;DHT22;352;48.626;9.238;2022-10-16T05:12:29;15.60;99.90
736;DHT22;352;48.626;9.238;2022-10-16T05:14:56;15.60;99.90
736;DHT22;352;48.626;9.238;2022-10-16T05:17:24;15.60;99.90
736;DHT22;352;48.626;9.238;2022-10-16T05:19:51;15.60;99.90
736;DHT22;352;48.626;9.238;2022-10-16T05:22:19;15.70;99.90
736;DHT22;352;48.626;9.238;2022-10-16T05:24:52;15.70;99.90
736;DHT22;352;48.626;9.238;2022-10-16T05:27:19;15.70;99.90
736;DHT22;352;48.626;9.238;2022-10-16T05:29:46;15.70;99.90
736;DHT22;352;48.626;9.238;2022-10-16T05:32:13;15.70;99.90
736;DHT22;352;48.626;9.238;2022-10-16T05:34:40;15.60;99.90
736;DHT22;352;48.626;9.238;2022-10-16T05:37:19;15.50;99.90
736;DHT22;352;48.626;9.238;2022-10-16T05:40:14;15.50;99.90
736;DHT22;352;48.626;9.238;2022-10-16T05:42:45;15.50;99.90
736;DHT22;352;48.626;9.238;2022-10-16T05:45:14;15.50;99.90
736;DHT22;352;48.626;9.238;2022-10-16T05:47:41;15.50;99.90
736;DHT22;352;48.626;9.238;2022-10-16T05:50:08;15.50;99.90
736;DHT22;352;48.626;9.238;2022-10-16T05:52:39;15.50;99.90
736;DHT22;352;48.626;9.238;2022-10-16T05:55:09;15.50;99.90
736;DHT22;352;48.626;9.238;2022-10-16T05:57:41;15.40;99.90
736;DHT22;352;48.626;9.238;2022-10-16T06:00:09;15.40;99.90
736;DHT22;352;48.626;9.238;2022-10-16T06:02:38;15.40;99.90
736;DHT22;352;48.626;9.238;2022-10-16T06:09:17;15.50;99.90
736;DHT22;352;48.626;9.238;2022-10-16T06:26:08;15.80;99.90
736;DHT22;352;48.626;9.238;2022-10-16T06:29:28;15.90;99.90
736;DHT22;352;48.626;9.238;2022-10-16T06:32:14;16.00;99.90
736;DHT22;352;48.626;9.238;2022-10-16T06:45:35;16.40;99.90
736;DHT22;352;48.626;9.238;2022-10-16T06:49:16;16.50;99.90
736;DHT22;352;48.626;9.238;2022-10-16T06:52:16;16.70;99.90
736;DHT22;352;48.626;9.238;2022-10-16T06:55:44;16.70;99.90
736;DHT22;352;48.626;9.238;2022-10-16T06:58:38;16.90;99.90
736;DHT22;352;48.626;9.238;2022-10-16T07:01:19;16.80;99.90
736;DHT22;352;48.626;9.238;2022-10-16T07:03:46;16.80;99.90
736;DHT22;352;48.626;9.238;2022-10-16T07:06:15;16.80;99.90
736;DHT22;352;48.626;9.238;2022-10-16T07:08:44;16.80;99.90
736;DHT22;352;48.626;9.238;2022-10-16T07:11:14;16.70;99.90
736;DHT22;352;48.626;9.238;2022-10-16T07:13:43;16.80;99.90
736;DHT22;352;48.626;9.238;2022-10-16T07:19:33;16.80;99.90
736;DHT22;352;48.626;9.238;2022-10-16T07:22:03;16.90;99.90
736;DHT22;352;48.626;9.238;2022-10-16T07:24:35;16.90;99.90
736;DHT22;352;48.626;9.238;2022-10-16T07:27:05;16.90;99.90
736;DHT22;352;48.626;9.238;2022-10-16T07:29:50;16.90;99.90
736;DHT22;352;48.626;9.238;2022-10-16T07:32:17;17.00;99.90
736;DHT22;352;48.626;9.238;2022-10-16T07:34:45;17.10;99.90
736;DHT22;352;48.626;9.238;2022-10-16T07:37:12;17.10;99.90
736;DHT22;352;48.626;9.238;2022-10-16T07:39:38;17.20;99.90
736;DHT22;352;48.626;9.238;2022-10-16T07:42:05;17.20;99.90
736;DHT22;352;48.626;9.238;2022-10-16T07:44:34;17.30;99.90
736;DHT22;352;48.626;9.238;2022-10-16T07:47:02;17.30;99.90
736;DHT22;352;48.626;9.238;2022-10-16T07:49:29;17.30;99.90
736;DHT22;352;48.626;9.238;2022-10-16T07:51:55;17.30;99.90
736;DHT22;352;48.626;9.238;2022-10-16T07:54:22;17.40;99.90
736;DHT22;352;48.626;9.238;2022-10-16T07:56:49;17.30;99.90
736;DHT22;352;48.626;9.238;2022-10-16T07:59:16;17.40;99.90
736;DHT22;352;48.626;9.238;2022-10-16T08:01:42;17.40;99.90
736;DHT22;352;48.626;9.238;2022-10-16T08:04:11;17.50;99.90
736;DHT22;352;48.626;9.238;2022-10-16T08:06:39;17.50;99.90
736;DHT22;352;48.626;9.238;2022-10-16T08:09:07;17.60;99.90
736;DHT22;352;48.626;9.238;2022-10-16T08:11:34;17.60;99.90
736;DHT22;352;48.626;9.238;2022-10-16T08:14:00;17.60;99.90
736;DHT22;352;48.626;9.238;2022-10-16T08:16:27;17.70;99.90
736;DHT22;352;48.626;9.238;2022-10-16T08:18:54;17.70;99.90
736;DHT22;352;48.626;9.238;2022-10-16T08:21:22;17.70;99.90
736;DHT22;352;48.626;9.238;2022-10-16T08:23:50;17.70;99.90
736;DHT22;352;48.626;9.238;2022-10-16T08:26:16;17.80;99.90
736;DHT22;352;48.626;9.238;2022-10-16T08:28:44;17.90;99.90
736;DHT22;352;48.626;9.238;2022-10-16T08:31:12;18.00;99.90
736;DHT22;352;48.626;9.238;2022-10-16T08:33:41;18.20;99.90
736;DHT22;352;48.626;9.238;2022-10-16T08:36:10;18.20;99.90
736;DHT22;352;48.626;9.238;2022-10-16T08:38:38;18.40;99.90
736;DHT22;352;48.626;9.238;2022-10-16T08:44:15;19.00;99.90
736;DHT22;352;48.626;9.238;2022-10-16T08:46:50;19.20;99.90
736;DHT22;352;48.626;9.238;2022-10-16T08:49:21;19.20;99.90
736;DHT22;352;48.626;9.238;2022-10-16T08:51:50;19.30;99.90
736;DHT22;352;48.626;9.238;2022-10-16T08:54:28;19.30;99.90
736;DHT22;352;48.626;9.238;2022-10-16T08:56:56;19.40;99.90
736;DHT22;352;48.626;9.238;2022-10-16T08:59:23;19.40;99.90
736;DHT22;352;48.626;9.238;2022-10-16T09:01:51;19.40;99.90
736;DHT22;352;48.626;9.238;2022-10-16T09:04:45;19.50;99.90
736;DHT22;352;48.626;9.238;2022-10-16T09:07:18;19.40;99.90
736;DHT22;352;48.626;9.238;2022-10-16T09:09:58;19.60;99.90
736;DHT22;352;48.626;9.238;2022-10-16T09:12:32;19.70;99.90
736;DHT22;352;48.626;9.238;2022-10-16T09:15:14;19.90;99.90
736;DHT22;352;48.626;9.238;2022-10-16T09:17:51;20.00;99.90
736;DHT22;352;48.626;9.238;2022-10-16T09:20:30;20.00;99.90
736;DHT22;352;48.626;9.238;2022-10-16T09:23:10;20.00;99.90
736;DHT22;352;48.626;9.238;2022-10-16T09:25:43;20.00;99.90
736;DHT22;352;48.626;9.238;2022-10-16T09:28:10;20.00;99.90
736;DHT22;352;48.626;9.238;2022-10-16T09:30:37;20.10;99.90
736;DHT22;352;48.626;9.238;2022-10-16T09:33:05;20.40;99.90
736;DHT22;352;48.626;9.238;2022-10-16T09:35:36;20.80;99.90
736;DHT22;352;48.626;9.238;2022-10-16T09:38:04;22.50;99.90
736;DHT22;352;48.626;9.238;2022-10-16T09:40:33;25.20;99.90
736;DHT22;352;48.626;9.238;2022-10-16T09:43:12;26.00;98.50
736;DHT22;352;48.626;9.238;2022-10-16T09:45:43;25.70;97.90
736;DHT22;352;48.626;9.238;2022-10-16T09:48:19;25.00;98.70
736;DHT22;352;48.626;9.238;2022-10-16T09:50:55;24.70;99.90
736;DHT22;352;48.626;9.238;2022-10-16T09:53:22;24.30;99.90
736;DHT22;352;48.626;9.238;2022-10-16T09:55:49;23.80;99.90
736;DHT22;352;48.626;9.238;2022-10-16T09:58:18;23.40;99.90
736;DHT22;352;48.626;9.238;2022-10-16T10:00:50;23.20;99.90
736;DHT22;352;48.626;9.238;2022-10-16T10:03:34;23.00;99.90
736;DHT22;352;48.626;9.238;2022-10-16T10:06:06;24.00;99.90
736;DHT22;352;48.626;9.238;2022-10-16T10:08:33;25.10;99.90
736;DHT22;352;48.626;9.238;2022-10-16T10:11:00;26.50;98.20
736;DHT22;352;48.626;9.238;2022-10-16T10:13:28;27.90;95.80
736;DHT22;352;48.626;9.238;2022-10-16T10:15:55;28.60;94.80
736;DHT22;352;48.626;9.238;2022-10-16T10:18:23;29.50;91.10
736;DHT22;352;48.626;9.238;2022-10-16T10:20:57;30.10;89.30
736;DHT22;352;48.626;9.238;2022-10-16T10:23:25;30.20;86.40
736;DHT22;352;48.626;9.238;2022-10-16T10:25:58;29.90;85.30
736;DHT22;352;48.626;9.238;2022-10-16T10:28:50;29.50;88.50
736;DHT22;352;48.626;9.238;2022-10-16T10:31:23;29.10;86.70
736;DHT22;352;48.626;9.238;2022-10-16T10:33:57;28.50;89.90
736;DHT22;352;48.626;9.238;2022-10-16T10:36:30;28.00;88.80
736;DHT22;352;48.626;9.238;2022-10-16T10:39:00;27.50;92.40
736;DHT22;352;48.626;9.238;2022-10-16T10:44:35;26.30;91.80
736;DHT22;352;48.626;9.238;2022-10-16T10:47:11;26.00;94.70
736;DHT22;352;48.626;9.238;2022-10-16T10:49:49;25.90;95.50
736;DHT22;352;48.626;9.238;2022-10-16T10:52:34;25.50;95.00
736;DHT22;352;48.626;9.238;2022-10-16T10:55:12;25.40;95.40
736;DHT22;352;48.626;9.238;2022-10-16T10:57:47;25.40;97.00
736;DHT22;352;48.626;9.238;2022-10-16T11:00:23;25.40;97.00
736;DHT22;352;48.626;9.238;2022-10-16T11:02:59;25.20;95.10
736;DHT22;352;48.626;9.238;2022-10-16T11:05:44;25.10;96.10
736;DHT22;352;48.626;9.238;2022-10-16T11:08:17;25.20;97.70
736;DHT22;352;48.626;9.238;2022-10-16T11:10:50;25.20;96.50
736;DHT22;352;48.626;9.238;2022-10-16T11:13:27;25.10;97.30
736;DHT22;352;48.626;9.238;2022-10-16T11:16:00;24.90;95.60
736;DHT22;352;48.626;9.238;2022-10-16T11:18:33;24.90;96.40
736;DHT22;352;48.626;9.238;2022-10-16T11:21:06;24.90;95.90
736;DHT22;352;48.626;9.238;2022-10-16T11:23:40;24.70;95.60
736;DHT22;352;48.626;9.238;2022-10-16T11:26:14;24.60;95.60
736;DHT22;352;48.626;9.238;2022-10-16T11:28:45;24.50;95.10
736;DHT22;352;48.626;9.238;2022-10-16T11:31:19;24.50;97.10
736;DHT22;352;48.626;9.238;2022-10-16T11:33:52;24.70;96.00
736;DHT22;352;48.626;9.238;2022-10-16T11:36:25;24.70;95.60
736;DHT22;352;48.626;9.238;2022-10-16T11:38:57;24.80;95.80
736;DHT22;352;48.626;9.238;2022-10-16T11:41:28;24.80;97.60
736;DHT22;352;48.626;9.238;2022-10-16T11:46:52;24.80;98.30
736;DHT22;352;48.626;9.238;2022-10-16T11:49:26;24.70;96.20
736;DHT22;352;48.626;9.238;2022-10-16T11:52:03;24.70;95.60
736;DHT22;352;48.626;9.238;2022-10-16T11:54:38;24.60;94.90
736;DHT22;352;48.626;9.238;2022-10-16T11:57:12;24.50;94.80
736;DHT22;352;48.626;9.238;2022-10-16T11:59:43;24.40;95.90
736;DHT22;352;48.626;9.238;2022-10-16T12:02:43;24.30;95.20
736;DHT22;352;48.626;9.238;2022-10-16T12:05:22;24.30;96.10
736;DHT22;352;48.626;9.238;2022-10-16T12:07:55;24.30;95.90
736;DHT22;352;48.626;9.238;2022-10-16T12:10:28;24.30;96.10
736;DHT22;352;48.626;9.238;2022-10-16T12:12:57;24.30;98.40
736;DHT22;352;48.626;9.238;2022-10-16T12:15:25;24.30;97.70
736;DHT22;352;48.626;9.238;2022-10-16T12:17:54;24.30;95.10
736;DHT22;352;48.626;9.238;2022-10-16T12:20:25;24.30;96.40
736;DHT22;352;48.626;9.238;2022-10-16T12:22:54;24.30;98.70
736;DHT22;352;48.626;9.238;2022-10-16T12:25:24;24.30;95.90
736;DHT22;352;48.626;9.238;2022-10-16T12:27:55;24.30;95.40
736;DHT22;352;48.626;9.238;2022-10-16T12:30:24;24.30;95.70
736;DHT22;352;48.626;9.238;2022-10-16T12:32:57;24.30;94.70
736;DHT22;352;48.626;9.238;2022-10-16T12:35:27;24.30;95.10
736;DHT22;352;48.626;9.238;2022-10-16T12:38:05;24.40;95.00
736;DHT22;352;48.626;9.238;2022-10-16T12:40:35;24.40;95.30
736;DHT22;352;48.626;9.238;2022-10-16T12:43:12;24.40;94.70
736;DHT22;352;48.626;9.238;2022-10-16T12:45:39;24.30;95.60
736;DHT22;352;48.626;9.238;2022-10-16T12:48:21;24.30;96.60
736;DHT22;352;48.626;9.238;2022-10-16T12:50:48;24.40;96.20
736;DHT22;352;48.626;9.238;2022-10-16T12:53:20;24.30;95.20
736;DHT22;352;48.626;9.238;2022-10-16T12:55:55;24.40;97.60
736;DHT22;352;48.626;9.238;2022-10-16T12:58:33;24.40;95.80
736;DHT22;352;48.626;9.238;2022-10-16T13:01:09;24.40;95.20
736;DHT22;352;48.626;9.238;2022-10-16T13:03:59;24.50;96.30
736;DHT22;352;48.626;9.238;2022-10-16T13:06:35;24.50;96.30
736;DHT22;352;48.626;9.238;2022-10-16T13:09:23;24.50;96.40
736;DHT22;352;48.626;9.238;2022-10-16T13:12:09;24.60;96.60
736;DHT22;352;48.626;9.238;2022-10-16T13:14:57;24.70;94.50
736;DHT22;352;48.626;9.238;2022-10-16T13:17:32;24.80;96.10
736;DHT22;352;48.626;9.238;2022-10-16T13:20:12;24.80;95.00
736;DHT22;352;48.626;9.238;2022-10-16T13:22:50;24.90;95.30
736;DHT22;352;48.626;9.238;2022-10-16T13:25:26;24.90;95.80
736;DHT22;352;48.626;9.238;2022-10-16T13:27:56;24.80;94.50
736;DHT22;352;48.626;9.238;2022-10-16T13:30:28;24.70;95.40
736;DHT22;352;48.626;9.238;2022-10-16T13:32:59;24.60;96.60
736;DHT22;352;48.626;9.238;2022-10-16T13:35:29;24.50;96.10
736;DHT22;352;48.626;9.238;2022-10-16T13:38:11;24.30;97.10
736;DHT22;352;48.626;9.238;2022-10-16T13:40:48;24.20;95.10
736;DHT22;352;48.626;9.238;2022-10-16T13:43:16;24.20;95.00
736;DHT22;352;48.626;9.238;2022-10-16T13:45:53;24.10;96.70
736;DHT22;352;48.626;9.238;2022-10-16T13:48:20;24.00;97.60
736;DHT22;352;48.626;9.238;2022-10-16T13:50:58;24.00;98.10
736;DHT22;352;48.626;9.238;2022-10-16T13:53:25;24.00;98.80
736;DHT22;352;48.626;9.238;2022-10-16T13:55:52;23.90;96.30
736;DHT22;352;48.626;9.238;2022-10-16T13:58:19;23.90;96.40
736;DHT22;352;48.626;9.238;2022-10-16T14:00:54;23.80;97.10
736;DHT22;352;48.626;9.238;2022-10-16T14:03:21;23.80;98.20
736;DHT22;352;48.626;9.238;2022-10-16T14:05:52;23.80;98.30
736;DHT22;352;48.626;9.238;2022-10-16T14:08:19;23.80;95.90
736;DHT22;352;48.626;9.238;2022-10-16T14:10:48;23.80;96.10
736;DHT22;352;48.626;9.238;2022-10-16T14:13:18;23.80;95.80
736;DHT22;352;48.626;9.238;2022-10-16T14:15:48;23.70;96.40
736;DHT22;352;48.626;9.238;2022-10-16T14:18:19;23.80;96.70
736;DHT22;352;48.626;9.238;2022-10-16T14:20:46;23.90;96.50
736;DHT22;352;48.626;9.238;2022-10-16T14:23:22;23.90;97.50
736;DHT22;352;48.626;9.238;2022-10-16T14:25:51;23.80;96.20
736;DHT22;352;48.626;9.238;2022-10-16T14:28:20;23.90;95.80
736;DHT22;352;48.626;9.238;2022-10-16T14:30:52;24.00;95.70
736;DHT22;352;48.626;9.238;2022-10-16T14:33:22;24.00;96.60
736;DHT22;352;48.626;9.238;2022-10-16T14:36:01;23.90;98.60
736;DHT22;352;48.626;9.238;2022-10-16T14:38:30;23.90;98.10
736;DHT22;352;48.626;9.238;2022-10-16T14:40:59;23.90;96.90
736;DHT22;352;48.626;9.238;2022-10-16T14:43:31;23.90;96.00
736;DHT22;352;48.626;9.238;2022-10-16T14:45:59;23.90;98.60
736;DHT22;352;48.626;9.238;2022-10-16T14:48:26;23.90;98.30
736;DHT22;352;48.626;9.238;2022-10-16T14:50:53;23.90;97.20
736;DHT22;352;48.626;9.238;2022-10-16T14:53:20;23.90;99.90
736;DHT22;352;48.626;9.238;2022-10-16T14:55:48;23.90;97.80
736;DHT22;352;48.626;9.238;2022-10-16T14:58:17;23.80;97.30
736;DHT22;352;48.626;9.238;2022-10-16T15:00:44;23.80;99.00
736;DHT22;352;48.626;9.238;2022-10-16T15:03:11;23.80;99.90
736;DHT22;352;48.626;9.238;2022-10-16T15:05:37;23.70;99.90
736;DHT22;352;48.626;9.238;2022-10-16T15:08:04;23.70;99.90
736;DHT22;352;48.626;9.238;2022-10-16T15:10:35;23.60;99.90
736;DHT22;352;48.626;9.238;2022-10-16T15:13:05;23.60;99.90
736;DHT22;352;48.626;9.238;2022-10-16T15:15:34;23.50;99.90
736;DHT22;352;48.626;9.238;2022-10-16T15:18:02;23.50;99.90
736;DHT22;352;48.626;9.238;2022-10-16T15:20:30;23.40;98.90
736;DHT22;352;48.626;9.238;2022-10-16T15:22:59;23.40;99.90
736;DHT22;352;48.626;9.238;2022-10-16T15:25:30;23.40;99.90
736;DHT22;352;48.626;9.238;2022-10-16T15:27:58;23.30;99.90
736;DHT22;352;48.626;9.238;2022-10-16T15:30:26;23.30;99.90
736;DHT22;352;48.626;9.238;2022-10-16T15:32:53;23.20;99.90
736;DHT22;352;48.626;9.238;2022-10-16T15:35:20;23.10;99.90
736;DHT22;352;48.626;9.238;2022-10-16T15:37:48;23.10;99.90
736;DHT22;352;48.626;9.238;2022-10-16T15:40:15;23.00;99.90
736;DHT22;352;48.626;9.238;2022-10-16T15:42:42;22.90;99.90
736;DHT22;352;48.626;9.238;2022-10-16T15:45:10;22.90;99.90
736;DHT22;352;48.626;9.238;2022-10-16T15:47:39;22.90;99.90
736;DHT22;352;48.626;9.238;2022-10-16T15:50:08;22.80;99.90
736;DHT22;352;48.626;9.238;2022-10-16T15:52:36;22.70;99.90
736;DHT22;352;48.626;9.238;2022-10-16T15:55:04;22.70;99.90
736;DHT22;352;48.626;9.238;2022-10-16T15:57:31;22.60;99.90
736;DHT22;352;48.626;9.238;2022-10-16T15:59:58;22.60;99.90
736;DHT22;352;48.626;9.238;2022-10-16T16:02:25;22.60;99.90
736;DHT22;352;48.626;9.238;2022-10-16T16:04:53;22.50;99.90
736;DHT22;352;48.626;9.238;2022-10-16T16:07:19;22.40;99.90
736;DHT22;352;48.626;9.238;2022-10-16T16:09:46;22.30;99.90
736;DHT22;352;48.626;9.238;2022-10-16T16:12:13;22.20;99.90
736;DHT22;352;48.626;9.238;2022-10-16T16:14:40;22.10;99.90
736;DHT22;352;48.626;9.238;2022-10-16T16:17:06;22.00;99.90
736;DHT22;352;48.626;9.238;2022-10-16T16:19:33;21.90;99.90
736;DHT22;352;48.626;9.238;2022-10-16T16:22:01;21.80;99.90
736;DHT22;352;48.626;9.238;2022-10-16T16:24:28;21.70;99.90
736;DHT22;352;48.626;9.238;2022-10-16T16:26:55;21.60;99.90
736;DHT22;352;48.626;9.238;2022-10-16T16:29:21;21.50;99.90
736;DHT22;352;48.626;9.238;2022-10-16T16:31:48;21.40;99.90
736;DHT22;352;48.626;9.238;2022-10-16T16:34:15;21.30;99.90
736;DHT22;352;48.626;9.238;2022-10-16T16:36:42;21.30;99.90
736;DHT22;352;48.626;9.238;2022-10-16T16:39:10;21.20;99.90
736;DHT22;352;48.626;9.238;2022-10-16T16:41:37;21.10;99.90
736;DHT22;352;48.626;9.238;2022-10-16T16:44:06;21.00;99.90
736;DHT22;352;48.626;9.238;2022-10-16T16:46:34;20.90;99.90
736;DHT22;352;48.626;9.238;2022-10-16T16:49:01;20.80;99.90
736;DHT22;352;48.626;9.238;2022-10-16T16:51:28;20.70;99.90
736;DHT22;352;48.626;9.238;2022-10-16T16:53:55;20.60;99.90
736;DHT22;352;48.626;9.238;2022-10-16T16:56:24;20.60;99.90
736;DHT22;352;48.626;9.238;2022-10-16T16:58:53;20.50;99.90
736;DHT22;352;48.626;9.238;2022-10-16T17:01:21;20.50;99.90
736;DHT22;352;48.626;9.238;2022-10-16T17:03:50;20.40;99.90
736;DHT22;352;48.626;9.238;2022-10-16T17:06:18;20.30;99.90
736;DHT22;352;48.626;9.238;2022-10-16T17:08:45;20.20;99.90
736;DHT22;352;48.626;9.238;2022-10-16T17:11:13;20.20;99.90
736;DHT22;352;48.626;9.238;2022-10-16T17:13:42;20.10;99.90
736;DHT22;352;48.626;9.238;2022-10-16T17:16:09;20.10;99.90
736;DHT22;352;48.626;9.238;2022-10-16T17:18:37;20.00;99.90
736;DHT22;352;48.626;9.238;2022-10-16T17:21:06;20.00;99.90
736;DHT22;352;48.626;9.238;2022-10-16T17:23:34;19.90;99.90
736;DHT22;352;48.626;9.238;2022-10-16T17:26:06;19.90;99.90
736;DHT22;352;48.626;9.238;2022-10-16T17:28:33;19.80;99.90
736;DHT22;352;48.626;9.238;2022-10-16T17:31:11;19.70;99.90
736;DHT22;352;48.626;9.238;2022-10-16T17:33:38;19.60;99.90
736;DHT22;352;48.626;9.238;2022-10-16T17:36:06;19.60;99.90
736;DHT22;352;48.626;9.238;2022-10-16T17:38:33;19.50;99.90